createdAt,value
2018-09-25T00:02:16.789Z,9.40
2018-09-25T00:04:50.574Z,9.40
2018-09-25T00:07:24.245Z,9.40
2018-09-25T00:09:58.054Z,9.50
2018-09-25T00:12:31.713Z,9.40
2018-09-25T00:15:05.505Z,9.40
2018-09-25T00:17:39.192Z,9.40
2018-09-25T00:20:12.972Z,9.40
2018-09-25T00:22:46.782Z,9.30
2018-09-25T00:25:20.456Z,9.20
2018-09-25T00:27:54.242Z,9.20
2018-09-25T00:30:28.112Z,9.20
2018-09-25T00:33:02.061Z,9.10
2018-09-25T00:35:35.583Z,9.00
2018-09-25T00:38:09.381Z,9.00
2018-09-25T00:40:43.072Z,9.00
2018-09-25T00:43:16.741Z,9.00
2018-09-25T00:45:50.414Z,9.00
2018-09-25T00:48:24.220Z,8.90
2018-09-25T00:50:57.917Z,8.80
2018-09-25T00:53:31.875Z,8.70
2018-09-25T00:56:05.459Z,8.60
2018-09-25T00:58:39.250Z,8.60
2018-09-25T01:01:13.033Z,8.60
2018-09-25T01:03:46.828Z,8.60
2018-09-25T01:06:20.610Z,8.50
2018-09-25T01:08:54.393Z,8.40
2018-09-25T01:11:28.173Z,8.40
2018-09-25T01:14:01.968Z,8.40
2018-09-25T01:16:35.759Z,8.40
2018-09-25T01:19:09.449Z,8.30
2018-09-25T01:21:43.125Z,8.40
2018-09-25T01:24:16.909Z,8.30
2018-09-25T01:26:50.585Z,8.30
2018-09-25T01:29:24.360Z,8.30
2018-09-25T01:31:57.962Z,8.30
2018-09-25T01:34:31.728Z,8.20
2018-09-25T01:37:05.350Z,8.20
2018-09-25T01:39:39.098Z,8.30
2018-09-25T01:42:12.890Z,8.30
2018-09-25T01:44:46.675Z,8.20
2018-09-25T01:47:20.547Z,8.20
2018-09-25T01:49:54.237Z,8.20
2018-09-25T01:52:27.847Z,8.20
2018-09-25T01:55:01.647Z,8.10
2018-09-25T01:57:35.417Z,8.10
2018-09-25T02:00:09.182Z,8.10
2018-09-25T02:02:42.856Z,8.00
2018-09-25T02:05:16.635Z,8.00
2018-09-25T02:07:50.336Z,8.00
2018-09-25T02:10:24.001Z,8.00
2018-09-25T02:12:57.679Z,8.00
2018-09-25T02:15:31.483Z,8.00
2018-09-25T02:18:05.262Z,7.90
2018-09-25T02:20:39.053Z,7.90
2018-09-25T02:23:12.931Z,7.90
2018-09-25T02:25:46.716Z,7.80
2018-09-25T02:28:20.511Z,7.80
2018-09-25T02:30:54.076Z,7.80
2018-09-25T02:33:27.681Z,7.70
2018-09-25T02:36:01.372Z,7.70
2018-09-25T02:38:35.142Z,7.70
2018-09-25T02:41:08.829Z,7.70
2018-09-25T02:43:42.438Z,7.70
2018-09-25T02:46:16.191Z,7.60
2018-09-25T02:48:49.963Z,7.60
2018-09-25T02:51:23.652Z,7.50
2018-09-25T02:53:57.444Z,7.50
2018-09-25T02:56:31.217Z,7.50
2018-09-25T02:59:04.916Z,7.50
2018-09-25T03:01:38.693Z,7.40
2018-09-25T03:04:12.361Z,7.40
2018-09-25T03:06:46.074Z,7.30
2018-09-25T03:09:19.728Z,7.20
2018-09-25T03:11:53.509Z,7.20
2018-09-25T03:14:27.342Z,7.00
2018-09-25T03:17:01.080Z,7.00
2018-09-25T03:19:34.788Z,7.10
2018-09-25T03:22:08.598Z,7.10
2018-09-25T03:24:42.331Z,7.10
2018-09-25T03:27:16.137Z,7.20
2018-09-25T03:29:49.810Z,7.20
2018-09-25T03:32:23.517Z,7.20
2018-09-25T03:34:57.277Z,7.20
2018-09-25T03:37:31.175Z,7.20
2018-09-25T03:40:04.949Z,7.20
2018-09-25T03:42:38.744Z,7.00
2018-09-25T03:45:12.524Z,7.10
2018-09-25T03:47:46.328Z,7.00
2018-09-25T03:50:20.116Z,7.00
2018-09-25T03:52:53.823Z,6.80
2018-09-25T03:55:27.574Z,6.80
2018-09-25T03:58:01.254Z,6.70
2018-09-25T04:00:35.072Z,6.80
2018-09-25T04:03:08.736Z,6.70
2018-09-25T04:05:42.508Z,6.70
2018-09-25T04:08:16.296Z,6.70
2018-09-25T04:10:50.003Z,6.80
2018-09-25T04:13:23.771Z,6.70
2018-09-25T04:15:57.396Z,6.70
2018-09-25T04:18:31.245Z,6.70
2018-09-25T04:21:05.056Z,6.70
2018-09-25T04:23:38.811Z,6.70
2018-09-25T04:26:12.717Z,6.60
2018-09-25T04:28:46.383Z,6.70
2018-09-25T04:31:20.160Z,6.70
2018-09-25T04:33:53.856Z,6.60
2018-09-25T04:36:27.648Z,6.60
2018-09-25T04:39:01.261Z,6.50
2018-09-25T04:41:35.009Z,6.50
2018-09-25T04:44:08.599Z,6.50
2018-09-25T04:46:42.379Z,6.50
2018-09-25T04:49:16.154Z,6.40
2018-09-25T04:51:49.936Z,6.40
2018-09-25T04:54:23.519Z,6.40
2018-09-25T04:56:57.257Z,6.40
2018-09-25T04:59:30.915Z,6.40
2018-09-25T05:02:04.684Z,6.40
2018-09-25T05:04:41.780Z,6.40
2018-09-25T05:07:15.677Z,6.40
2018-09-25T05:09:49.536Z,6.50
2018-09-25T05:12:23.336Z,6.50
2018-09-25T05:14:57.020Z,6.50
2018-09-25T05:17:30.792Z,6.60
2018-09-25T05:20:04.656Z,6.60
2018-09-25T05:22:38.373Z,6.60
2018-09-25T05:25:12.509Z,6.50
2018-09-25T05:27:46.532Z,6.50
2018-09-25T05:30:20.122Z,6.50
2018-09-25T05:32:53.909Z,6.60
2018-09-25T05:35:27.724Z,6.60
2018-09-25T05:38:01.321Z,6.50
2018-09-25T05:40:35.065Z,6.50
2018-09-25T05:43:08.940Z,6.60
2018-09-25T05:45:42.796Z,6.60
2018-09-25T05:48:16.510Z,6.60
2018-09-25T05:50:50.203Z,6.50
2018-09-25T05:53:24.116Z,6.40
2018-09-25T05:55:58.012Z,6.40
2018-09-25T05:58:31.823Z,6.40
2018-09-25T06:01:05.840Z,6.50
2018-09-25T06:03:39.396Z,6.60
2018-09-25T06:06:13.116Z,6.60
2018-09-25T06:08:46.904Z,6.70
2018-09-25T06:11:20.693Z,6.80
2018-09-25T06:13:54.419Z,6.80
2018-09-25T06:16:29.110Z,7.00
2018-09-25T06:19:03.104Z,7.00
2018-09-25T06:21:36.792Z,7.10
2018-09-25T06:24:10.681Z,7.20
2018-09-25T06:26:44.655Z,7.30
2018-09-25T06:29:18.605Z,7.30
2018-09-25T06:31:52.475Z,7.40
2018-09-25T06:34:26.555Z,7.50
2018-09-25T06:37:00.430Z,7.50
2018-09-25T06:39:34.692Z,7.50
2018-09-25T06:42:09.074Z,7.60
2018-09-25T06:44:43.111Z,7.70
2018-09-25T06:47:17.401Z,7.80
2018-09-25T06:49:51.193Z,7.80
2018-09-25T06:52:25.298Z,7.90
2018-09-25T06:54:59.500Z,8.10
2018-09-25T06:57:33.428Z,8.20
2018-09-25T07:00:07.609Z,8.30
2018-09-25T07:02:41.513Z,8.40
2018-09-25T07:05:18.322Z,8.50
2018-09-25T07:07:52.433Z,8.60
2018-09-25T07:10:26.575Z,8.70
2018-09-25T07:13:00.442Z,8.70
2018-09-25T07:15:34.178Z,8.80
2018-09-25T07:18:08.234Z,8.80
2018-09-25T07:20:42.213Z,8.80
2018-09-25T07:23:16.295Z,9.00
2018-09-25T07:25:50.179Z,9.10
2018-09-25T07:28:24.162Z,9.10
2018-09-25T07:30:58.398Z,9.20
2018-09-25T07:33:32.607Z,9.40
2018-09-25T07:36:06.823Z,9.50
2018-09-25T07:38:41.686Z,9.50
2018-09-25T07:41:15.586Z,9.60
2018-09-25T07:43:49.530Z,9.60
2018-09-25T07:46:23.668Z,9.60
2018-09-25T07:48:57.525Z,9.80
2018-09-25T07:51:31.560Z,10.00
2018-09-25T07:54:05.701Z,10.10
2018-09-25T07:56:39.754Z,10.10
2018-09-25T07:59:13.658Z,10.20
2018-09-25T08:01:47.780Z,10.40
2018-09-25T08:04:21.558Z,10.30
2018-09-25T08:06:55.216Z,10.40
2018-09-25T08:09:29.027Z,10.50
2018-09-25T08:12:02.897Z,10.60
2018-09-25T08:14:36.697Z,10.70
2018-09-25T08:17:10.474Z,10.90
2018-09-25T08:19:44.073Z,11.00
2018-09-25T08:22:17.854Z,11.10
2018-09-25T08:24:51.623Z,11.30
2018-09-25T08:27:25.435Z,11.40
2018-09-25T08:29:59.135Z,11.70
2018-09-25T08:32:32.910Z,11.80
2018-09-25T08:35:06.735Z,11.80
2018-09-25T08:37:40.471Z,12.00
2018-09-25T08:40:14.152Z,12.00
2018-09-25T08:42:47.935Z,12.10
2018-09-25T08:45:21.756Z,12.20
2018-09-25T08:47:55.500Z,12.40
2018-09-25T08:50:29.097Z,12.50
2018-09-25T08:53:02.860Z,12.60
2018-09-25T08:55:36.639Z,12.60
2018-09-25T08:58:10.447Z,12.80
2018-09-25T09:00:44.246Z,12.80
2018-09-25T09:03:18.121Z,12.90
2018-09-25T09:05:51.792Z,13.10
2018-09-25T09:08:25.550Z,13.10
2018-09-25T09:10:59.209Z,13.20
2018-09-25T09:13:32.947Z,13.30
2018-09-25T09:16:06.743Z,13.40
2018-09-25T09:18:40.539Z,13.30
2018-09-25T09:21:14.326Z,13.50
2018-09-25T09:23:47.913Z,13.30
2018-09-25T09:26:21.680Z,13.60
2018-09-25T09:28:55.392Z,13.80
2018-09-25T09:31:29.047Z,13.90
2018-09-25T09:34:02.833Z,14.10
2018-09-25T09:36:36.424Z,14.10
2018-09-25T09:39:13.090Z,14.30
2018-09-25T09:41:47.202Z,14.20
2018-09-25T09:44:20.747Z,14.30
2018-09-25T09:46:54.435Z,14.40
2018-09-25T09:49:28.011Z,14.50
2018-09-25T09:52:01.796Z,14.60
2018-09-25T09:54:35.593Z,14.50
2018-09-25T09:57:09.267Z,14.50
2018-09-25T09:59:43.053Z,14.50
2018-09-25T10:02:16.637Z,14.80
2018-09-25T10:04:50.342Z,14.80
2018-09-25T10:07:24.025Z,15.00
2018-09-25T10:09:57.808Z,15.20
2018-09-25T10:12:31.610Z,15.10
2018-09-25T10:15:05.399Z,14.90
2018-09-25T10:17:39.173Z,14.80
2018-09-25T10:20:13.119Z,14.90
2018-09-25T10:22:46.844Z,15.10
2018-09-25T10:25:20.628Z,15.40
2018-09-25T10:27:54.422Z,15.40
2018-09-25T10:30:28.193Z,15.60
2018-09-25T10:33:01.873Z,15.80
2018-09-25T10:35:35.678Z,15.80
2018-09-25T10:38:09.462Z,15.90
2018-09-25T10:40:43.350Z,16.10
2018-09-25T10:43:16.917Z,16.10
2018-09-25T10:45:50.621Z,16.20
2018-09-25T10:48:24.397Z,16.30
2018-09-25T10:50:58.072Z,16.30
2018-09-25T10:53:31.862Z,16.50
2018-09-25T10:56:05.703Z,16.80
2018-09-25T10:58:39.355Z,17.10
2018-09-25T11:01:13.025Z,17.40
2018-09-25T11:03:46.634Z,17.90
2018-09-25T11:06:20.291Z,17.70
2018-09-25T11:08:54.332Z,18.00
2018-09-25T11:11:28.071Z,18.40
2018-09-25T11:14:01.866Z,18.60
2018-09-25T11:16:35.644Z,18.90
2018-09-25T11:19:09.227Z,18.90
2018-09-25T11:21:43.039Z,19.00
2018-09-25T11:24:18.673Z,18.80
2018-09-25T11:26:52.451Z,18.70
2018-09-25T11:29:26.132Z,18.60
2018-09-25T11:31:59.934Z,19.00
2018-09-25T11:34:33.716Z,19.40
2018-09-25T11:37:07.501Z,19.40
2018-09-25T11:39:41.283Z,19.00
2018-09-25T11:42:14.980Z,18.90
2018-09-25T11:44:48.761Z,18.80
2018-09-25T11:47:22.376Z,19.20
2018-09-25T11:49:56.284Z,18.90
2018-09-25T11:52:30.034Z,18.90
2018-09-25T11:55:03.619Z,18.90
2018-09-25T11:57:37.382Z,18.50
2018-09-25T12:00:11.202Z,18.60
2018-09-25T12:02:44.856Z,19.30
2018-09-25T12:05:18.558Z,19.50
2018-09-25T12:07:52.246Z,20.00
2018-09-25T12:10:25.916Z,19.90
2018-09-25T12:12:59.676Z,19.70
2018-09-25T12:15:33.513Z,20.00
2018-09-25T12:18:07.204Z,20.00
2018-09-25T12:20:41.014Z,20.20
2018-09-25T12:23:14.764Z,20.10
2018-09-25T12:25:48.339Z,20.30
2018-09-25T12:28:22.137Z,20.30
2018-09-25T12:30:55.824Z,20.20
2018-09-25T12:33:29.502Z,20.30
2018-09-25T12:36:03.100Z,20.20
2018-09-25T12:38:36.777Z,20.30
2018-09-25T12:41:10.553Z,20.20
2018-09-25T12:43:44.372Z,20.30
2018-09-25T12:46:18.095Z,21.10
2018-09-25T12:48:51.929Z,21.10
2018-09-25T12:51:25.592Z,20.70
2018-09-25T12:53:59.331Z,20.60
2018-09-25T12:56:33.089Z,20.50
2018-09-25T12:59:06.827Z,20.90
2018-09-25T13:01:40.612Z,21.20
2018-09-25T13:04:14.364Z,21.30
2018-09-25T13:06:48.164Z,21.30
2018-09-25T13:09:21.943Z,21.20
2018-09-25T13:11:55.734Z,21.30
2018-09-25T13:14:29.547Z,21.40
2018-09-25T13:17:03.241Z,21.60
2018-09-25T13:19:37.125Z,22.00
2018-09-25T13:22:11.055Z,22.10
2018-09-25T13:24:44.734Z,22.10
2018-09-25T13:27:18.543Z,21.90
2018-09-25T13:29:52.236Z,22.00
2018-09-25T13:32:26.120Z,22.10
2018-09-25T13:34:59.997Z,22.10
2018-09-25T13:37:33.678Z,21.80
2018-09-25T13:40:07.572Z,22.30
2018-09-25T13:42:41.397Z,22.30
2018-09-25T13:45:15.072Z,22.30
2018-09-25T13:47:48.843Z,22.40
2018-09-25T13:50:22.438Z,22.30
2018-09-25T13:52:56.100Z,21.80
2018-09-25T13:55:29.821Z,21.80
2018-09-25T13:58:10.591Z,21.80
2018-09-25T14:00:44.279Z,22.30
2018-09-25T14:03:18.076Z,23.00
2018-09-25T14:05:51.924Z,22.70
2018-09-25T14:08:25.620Z,22.40
2018-09-25T14:10:59.422Z,22.60
2018-09-25T14:13:32.991Z,22.40
2018-09-25T14:16:06.679Z,22.50
2018-09-25T14:18:40.410Z,22.70
2018-09-25T14:21:14.019Z,22.70
2018-09-25T14:23:47.723Z,22.50
2018-09-25T14:26:21.615Z,22.50
2018-09-25T14:28:55.384Z,22.50
2018-09-25T14:31:29.093Z,22.40
2018-09-25T14:34:02.866Z,22.50
2018-09-25T14:36:36.566Z,22.30
2018-09-25T14:39:12.230Z,21.80
2018-09-25T14:41:45.972Z,21.50
2018-09-25T14:44:19.641Z,22.10
2018-09-25T14:46:53.343Z,22.20
2018-09-25T14:49:27.112Z,21.50
2018-09-25T14:52:00.802Z,20.90
2018-09-25T14:54:34.466Z,21.00
2018-09-25T14:57:08.069Z,21.20
2018-09-25T14:59:41.758Z,20.90
2018-09-25T15:02:15.557Z,20.90
2018-09-25T15:04:49.333Z,20.50
2018-09-25T15:07:23.173Z,20.50
2018-09-25T15:09:56.953Z,20.60
2018-09-25T15:12:31.219Z,20.70
2018-09-25T15:15:05.006Z,20.00
2018-09-25T15:17:38.893Z,19.50
2018-09-25T15:20:12.608Z,19.00
2018-09-25T15:22:46.353Z,19.30
2018-09-25T15:25:20.244Z,19.00
2018-09-25T15:27:54.033Z,18.70
2018-09-25T15:30:27.743Z,18.80
2018-09-25T15:33:01.441Z,18.50
2018-09-25T15:35:35.338Z,18.50
2018-09-25T15:38:08.875Z,18.50
2018-09-25T15:40:42.541Z,18.30
2018-09-25T15:43:16.157Z,17.90
2018-09-25T15:45:50.008Z,17.70
2018-09-25T15:48:23.714Z,17.40
2018-09-25T15:50:57.507Z,17.30
2018-09-25T15:53:31.294Z,17.30
2018-09-25T15:56:04.976Z,17.40
2018-09-25T15:58:38.662Z,17.50
2018-09-25T16:01:12.485Z,17.40
2018-09-25T16:03:46.123Z,17.10
2018-09-25T16:06:19.713Z,16.80
2018-09-25T16:08:53.505Z,16.70
2018-09-25T16:11:27.193Z,16.80
2018-09-25T16:14:00.890Z,16.80
2018-09-25T16:16:34.453Z,16.70
2018-09-25T16:19:08.233Z,16.70
2018-09-25T16:21:41.919Z,16.70
2018-09-25T16:24:15.710Z,16.70
2018-09-25T16:26:49.469Z,16.70
2018-09-25T16:29:23.415Z,16.40
2018-09-25T16:31:57.263Z,16.60
2018-09-25T16:34:30.959Z,16.40
2018-09-25T16:37:04.672Z,16.30
2018-09-25T16:39:38.345Z,16.30
2018-09-25T16:42:12.033Z,16.20
2018-09-25T16:44:45.640Z,16.10
2018-09-25T16:47:19.421Z,16.00
2018-09-25T16:49:53.147Z,16.10
2018-09-25T16:52:26.940Z,16.00
2018-09-25T16:55:00.646Z,15.80
2018-09-25T16:57:34.255Z,15.80
2018-09-25T17:00:07.939Z,15.70
2018-09-25T17:02:41.597Z,15.60
2018-09-25T17:05:15.373Z,15.50
2018-09-25T17:07:49.050Z,15.50
2018-09-25T17:10:22.871Z,15.40
2018-09-25T17:12:56.460Z,15.30
2018-09-25T17:15:30.228Z,15.30
2018-09-25T17:18:04.118Z,15.30
2018-09-25T17:20:37.901Z,15.20
2018-09-25T17:23:11.680Z,15.20
2018-09-25T17:25:45.276Z,15.10
2018-09-25T17:28:19.064Z,15.10
2018-09-25T17:30:52.833Z,15.00
2018-09-25T17:33:26.644Z,14.80
2018-09-25T17:36:00.458Z,14.90
2018-09-25T17:38:34.188Z,14.70
2018-09-25T17:41:07.907Z,14.50
2018-09-25T17:43:41.695Z,14.50
2018-09-25T17:46:15.244Z,14.40
2018-09-25T17:48:49.052Z,14.30
2018-09-25T17:51:22.850Z,14.30
2018-09-25T17:53:56.595Z,14.20
2018-09-25T17:56:30.288Z,14.10
2018-09-25T17:59:03.978Z,13.90
2018-09-25T18:01:37.756Z,14.00
2018-09-25T18:04:11.583Z,13.90
2018-09-25T18:06:45.446Z,13.80
2018-09-25T18:09:19.222Z,13.80
2018-09-25T18:11:52.910Z,13.80
2018-09-25T18:14:26.729Z,13.80
2018-09-25T18:17:00.517Z,13.70
2018-09-25T18:19:34.185Z,13.70
2018-09-25T18:22:08.036Z,13.50
2018-09-25T18:24:41.765Z,13.50
2018-09-25T18:27:15.561Z,13.40
2018-09-25T18:29:49.242Z,13.40
2018-09-25T18:32:22.986Z,13.30
2018-09-25T18:34:56.633Z,13.20
2018-09-25T18:37:30.361Z,13.10
2018-09-25T18:40:04.206Z,13.10
2018-09-25T18:42:37.985Z,13.10
2018-09-25T18:45:11.992Z,13.00
2018-09-25T18:47:46.205Z,12.90
2018-09-25T18:50:20.199Z,12.90
2018-09-25T18:52:53.975Z,12.90
2018-09-25T18:55:28.161Z,12.80
2018-09-25T18:58:01.901Z,12.70
2018-09-25T19:00:37.346Z,12.60
2018-09-25T19:03:11.144Z,12.50
2018-09-25T19:05:45.296Z,12.50
2018-09-25T19:08:19.431Z,12.50
2018-09-25T19:10:53.394Z,12.40
2018-09-25T19:13:27.663Z,12.40
2018-09-25T19:16:01.589Z,12.40
2018-09-25T19:18:35.860Z,12.40
2018-09-25T19:21:09.925Z,12.30
2018-09-25T19:23:43.675Z,12.30
2018-09-25T19:26:17.959Z,12.20
2018-09-25T19:28:51.896Z,12.20
2018-09-25T19:31:25.716Z,12.20
2018-09-25T19:33:59.459Z,12.00
2018-09-25T19:36:33.176Z,12.10
2018-09-25T19:39:06.846Z,11.90
2018-09-25T19:41:40.534Z,11.90
2018-09-25T19:44:14.328Z,11.90
2018-09-25T19:46:47.822Z,11.80
2018-09-25T19:49:21.613Z,11.70
2018-09-25T19:51:55.424Z,11.70
2018-09-25T19:54:29.152Z,11.70
2018-09-25T19:57:02.837Z,11.60
2018-09-25T19:59:36.668Z,11.60
2018-09-25T20:02:10.404Z,11.60
2018-09-25T20:04:44.285Z,11.50
2018-09-25T20:07:18.096Z,11.50
2018-09-25T20:09:51.862Z,11.40
2018-09-25T20:12:25.715Z,11.40
2018-09-25T20:14:59.539Z,11.40
2018-09-25T20:17:33.239Z,11.30
2018-09-25T20:20:07.129Z,11.30
2018-09-25T20:22:40.857Z,11.30
2018-09-25T20:25:14.516Z,11.20
2018-09-25T20:27:48.304Z,11.10
2018-09-25T20:30:22.094Z,11.00
2018-09-25T20:32:56.494Z,11.00
2018-09-25T20:35:30.270Z,11.00
2018-09-25T20:38:03.953Z,11.00
2018-09-25T20:40:37.736Z,10.90
2018-09-25T20:43:11.617Z,10.90
2018-09-25T20:45:45.140Z,10.80
2018-09-25T20:48:18.845Z,10.80
2018-09-25T20:50:52.603Z,10.70
2018-09-25T20:53:26.397Z,10.60
2018-09-25T20:56:00.198Z,10.60
2018-09-25T20:58:33.955Z,10.60
2018-09-25T21:01:07.795Z,10.60
2018-09-25T21:03:41.576Z,10.50
2018-09-25T21:06:15.317Z,10.50
2018-09-25T21:08:49.020Z,10.40
2018-09-25T21:11:22.734Z,10.40
2018-09-25T21:13:56.484Z,10.30
2018-09-25T21:16:30.284Z,10.30
2018-09-25T21:19:04.288Z,10.40
2018-09-25T21:21:37.952Z,10.50
2018-09-25T21:24:11.952Z,10.40
2018-09-25T21:26:45.829Z,10.30
2018-09-25T21:29:19.538Z,10.30
2018-09-25T21:31:53.448Z,10.20
2018-09-25T21:34:27.279Z,10.20
2018-09-25T21:37:01.126Z,10.10
2018-09-25T21:39:35.089Z,10.10
2018-09-25T21:42:08.992Z,10.00
2018-09-25T21:44:42.780Z,10.10
2018-09-25T21:47:16.507Z,10.00
2018-09-25T21:49:50.349Z,10.10
2018-09-25T21:52:24.023Z,10.00
2018-09-25T21:54:57.722Z,10.00
2018-09-25T21:57:31.764Z,9.90
2018-09-25T22:00:05.299Z,9.90
2018-09-25T22:02:38.958Z,9.80
2018-09-25T22:05:12.842Z,9.80
2018-09-25T22:07:46.337Z,9.80
2018-09-25T22:10:20.137Z,9.80
2018-09-25T22:12:53.902Z,9.70
2018-09-25T22:15:27.640Z,9.70
2018-09-25T22:18:01.401Z,9.70
2018-09-25T22:20:35.284Z,9.70
2018-09-25T22:23:08.972Z,9.60
2018-09-25T22:25:42.673Z,9.60
2018-09-25T22:28:16.365Z,9.50
2018-09-25T22:30:50.064Z,9.50
2018-09-25T22:33:23.840Z,9.40
2018-09-25T22:35:57.498Z,9.40
2018-09-25T22:38:31.227Z,9.30
2018-09-25T22:41:04.830Z,9.20
2018-09-25T22:43:38.583Z,9.20
2018-09-25T22:46:12.353Z,9.20
2018-09-25T22:48:46.048Z,9.10
2018-09-25T22:51:19.792Z,9.10
2018-09-25T22:53:53.606Z,9.00
2018-09-25T22:56:27.406Z,9.00
2018-09-25T22:59:01.245Z,9.00
2018-09-25T23:01:34.983Z,8.90
2018-09-25T23:04:08.484Z,8.90
2018-09-25T23:06:42.331Z,8.80
2018-09-25T23:09:16.025Z,8.80
2018-09-25T23:11:49.714Z,8.80
2018-09-25T23:14:23.503Z,8.70
2018-09-25T23:16:57.157Z,8.70
2018-09-25T23:19:31.055Z,8.60
2018-09-25T23:22:04.632Z,8.60
2018-09-25T23:24:38.420Z,8.60
2018-09-25T23:27:12.418Z,8.60
2018-09-25T23:29:46.197Z,8.50
2018-09-25T23:32:19.892Z,8.40
2018-09-25T23:34:53.580Z,8.40
2018-09-25T23:37:27.165Z,8.30
2018-09-25T23:39:59.739Z,8.20
2018-09-25T23:42:35.560Z,8.20
2018-09-25T23:46:08.019Z,8.10
2018-09-25T23:48:48.076Z,8.10
2018-09-25T23:51:26.604Z,8.10
2018-09-25T23:54:04.881Z,8.00
2018-09-25T23:56:56.483Z,8.00
2018-09-25T23:59:30.174Z,8.00
